Time;durP1;ratioP1;P1;durP2;ratioP2;P2;SDS_P1;SDS_P2;PMS_P1;PMS_P2;Temp;Humidity;BMP_temperature;BMP_pressure;BME280_temperature;BME280_humidity;BME280_pressure;Samples;Min_cycle;Max_cycle;Signal;HPM_P1;HPM_P2
2023/01/01 00:00:59;;;;;;;3.33;1.80;;;;;;;-144.22;100.00;60274.75;6293723;28;20236;-67
2023/01/01 00:04:01;;;;;;;3.80;2.07;;;;;;;-144.22;100.00;60274.75;6271987;28;20313;-67
2023/01/01 00:07:03;;;;;;;3.17;2.53;;;;;;;-144.22;100.00;60274.75;6276134;28;20738;-67
2023/01/01 00:13:26;;;;;;;8.03;3.37;;;;;;;-144.22;100.00;60274.75;6290737;28;20237;-66
2023/01/01 00:16:28;;;;;;;3.70;2.70;;;;;;;-144.22;100.00;60274.75;6276276;28;20706;-66
2023/01/01 00:19:31;;;;;;;4.07;2.93;;;;;;;-144.22;100.00;60274.75;6290512;28;20238;-67
2023/01/01 00:22:33;;;;;;;8.07;3.20;;;;;;;-144.22;100.00;60274.75;6292281;28;20309;-67
2023/01/01 00:25:55;;;;;;;3.63;2.50;;;;;;;-144.22;100.00;60274.75;6289045;28;20731;-67
2023/01/01 00:28:57;;;;;;;5.50;3.33;;;;;;;-144.22;100.00;60274.75;6276876;28;20694;-67
2023/01/01 00:31:59;;;;;;;6.13;3.10;;;;;;;-144.22;100.00;60274.75;6271962;28;20637;-67
2023/01/01 00:35:02;;;;;;;5.97;3.30;;;;;;;-144.22;100.00;60274.75;6289864;28;20225;-67
2023/01/01 00:38:05;;;;;;;3.13;2.40;;;;;;;-144.22;100.00;60274.75;6276061;28;20605;-66
2023/01/01 00:41:07;;;;;;;2.40;1.97;;;;;;;-144.22;100.00;60274.75;6290906;28;20260;-66
2023/01/01 00:44:09;;;;;;;3.93;2.60;;;;;;;-144.22;100.00;60274.75;6290273;28;20235;-67
2023/01/01 00:47:11;;;;;;;5.27;3.00;;;;;;;-144.22;100.00;60274.75;6290357;28;20372;-66
2023/01/01 00:50:13;;;;;;;6.03;3.00;;;;;;;-144.22;100.00;60274.75;6292206;28;20730;-66
2023/01/01 00:53:16;;;;;;;7.87;2.43;;;;;;;-144.22;100.00;60274.75;6294667;28;20271;-67
2023/01/01 00:56:18;;;;;;;3.93;3.13;;;;;;;-144.22;100.00;60274.75;6278556;28;20238;-67
2023/01/01 00:59:20;;;;;;;3.73;2.67;;;;;;;-144.22;100.00;60274.75;6274901;28;20236;-66
2023/01/01 01:02:29;;;;;;;6.27;3.70;;;;;;;-144.22;100.00;60274.75;6292781;28;20229;-67
2023/01/01 01:05:33;;;;;;;5.27;3.57;;;;;;;-144.22;100.00;60274.75;6277240;28;20751;-66
2023/01/01 01:08:37;;;;;;;5.20;4.00;;;;;;;-144.22;100.00;60274.75;6290965;28;20230;-67
2023/01/01 01:11:39;;;;;;;8.70;5.23;;;;;;;-144.22;100.00;60274.75;6295384;28;20241;-67
2023/01/01 01:14:41;;;;;;;6.43;3.80;;;;;;;-144.22;100.00;60274.75;6293280;28;20226;-67
2023/01/01 01:17:44;;;;;;;6.73;4.60;;;;;;;-144.22;100.00;60274.75;6295358;28;20761;-66
2023/01/01 01:20:55;;;;;;;9.50;5.60;;;;;;;-144.22;100.00;60274.75;6291642;28;20615;-68
2023/01/01 01:23:58;;;;;;;10.50;6.00;;;;;;;-144.22;100.00;60274.75;6294338;28;20324;-67
2023/01/01 01:27:00;;;;;;;9.43;5.77;;;;;;;-144.22;100.00;60274.75;6293986;28;20737;-67
2023/01/01 01:30:03;;;;;;;7.43;5.20;;;;;;;-144.22;100.00;60274.75;6273822;28;20222;-67
2023/01/01 01:33:05;;;;;;;7.13;5.30;;;;;;;-144.22;100.00;60274.75;6295267;28;20230;-66
2023/01/01 01:36:09;;;;;;;10.40;5.97;;;;;;;-144.22;100.00;60274.75;6295969;28;20367;-67
2023/01/01 01:39:11;;;;;;;8.77;6.20;;;;;;;-144.22;100.00;60274.75;6296801;28;20226;-67
2023/01/01 01:42:17;;;;;;;9.00;5.63;;;;;;;-144.22;100.00;60274.75;6294788;28;20219;-67
2023/01/01 01:45:19;;;;;;;11.77;6.13;;;;;;;-144.22;100.00;60274.75;6275856;28;20224;-67
2023/01/01 01:48:23;;;;;;;9.13;6.53;;;;;;;-144.22;100.00;60274.75;6291108;28;20634;-67
2023/01/01 01:51:35;;;;;;;8.87;6.07;;;;;;;-144.22;100.00;60274.75;6278578;28;20223;-67
2023/01/01 01:54:38;;;;;;;10.17;7.17;;;;;;;-144.22;100.00;60274.75;6294322;28;20222;-67
2023/01/01 01:57:41;;;;;;;12.80;6.80;;;;;;;-144.22;100.00;60274.75;6294472;28;20218;-67
2023/01/01 02:00:43;;;;;;;11.83;7.40;;;;;;;-144.22;100.00;60274.75;6294090;28;20301;-67
2023/01/01 02:03:59;;;;;;;10.93;7.40;;;;;;;-144.22;100.00;60274.75;6292576;28;20232;-67
2023/01/01 02:07:01;;;;;;;13.17;8.10;;;;;;;-144.22;100.00;60274.75;6293398;28;20233;-67
2023/01/01 02:10:04;;;;;;;11.10;7.50;;;;;;;-144.22;100.00;60274.75;6294134;28;20644;-67
2023/01/01 02:13:06;;;;;;;12.23;7.33;;;;;;;-144.22;100.00;60274.75;6293012;28;20743;-67
2023/01/01 02:16:16;;;;;;;11.73;7.63;;;;;;;-144.22;100.00;60274.75;6291740;28;20237;-66
2023/01/01 02:19:42;;;;;;;14.60;7.77;;;;;;;-144.22;100.00;60274.75;6291037;28;20239;-67
2023/01/01 02:23:38;;;;;;;13.93;8.17;;;;;;;-144.22;100.00;60274.75;6289948;28;20245;-67
2023/01/01 02:27:04;;;;;;;12.33;7.90;;;;;;;-144.22;100.00;60274.75;6165160;28;20690;-67
2023/01/01 02:30:08;;;;;;;14.23;8.70;;;;;;;-144.22;100.00;60274.75;6268819;28;20240;-67
2023/01/01 02:33:15;;;;;;;15.77;9.27;;;;;;;-144.22;100.00;60274.75;6272975;28;20226;-68
2023/01/01 02:36:18;;;;;;;18.33;9.97;;;;;;;-144.22;100.00;60274.75;6265635;28;20710;-67
2023/01/01 02:39:26;;;;;;;20.10;10.87;;;;;;;-144.22;100.00;60274.75;6267007;28;20221;-67
2023/01/01 02:42:29;;;;;;;21.73;12.70;;;;;;;-144.22;100.00;60274.75;6267233;28;20229;-67
2023/01/01 02:45:32;;;;;;;19.73;12.30;;;;;;;-144.22;100.00;60274.75;6267032;28;20597;-66
2023/01/01 02:48:45;;;;;;;22.60;14.17;;;;;;;-144.22;100.00;60274.75;6267546;28;20230;-67
2023/01/01 02:51:56;;;;;;;20.10;12.13;;;;;;;-144.22;100.00;60274.75;6272237;28;20223;-67
2023/01/01 02:55:06;;;;;;;18.73;11.77;;;;;;;-144.22;100.00;60274.75;6273393;28;20804;-66
2023/01/01 03:02:16;;;;;;;19.23;11.57;;;;;;;-144.22;100.00;60274.75;6253218;28;20228;-67
2023/01/01 03:05:29;;;;;;;19.73;12.57;;;;;;;-144.22;100.00;60274.75;6265288;28;20234;-67
2023/01/01 03:08:48;;;;;;;23.53;12.60;;;;;;;-144.22;100.00;60274.75;6248229;28;20743;-67
2023/01/01 03:12:38;;;;;;;18.17;10.97;;;;;;;-144.22;100.00;60274.75;6261551;28;20269;-67
2023/01/01 03:16:09;;;;;;;21.07;12.13;;;;;;;-144.22;100.00;60274.75;6264006;28;20231;-67
2023/01/01 03:19:28;;;;;;;21.43;11.77;;;;;;;-144.22;100.00;60274.75;6269526;28;20238;-66
2023/01/01 03:22:34;;;;;;;22.93;12.27;;;;;;;-144.22;100.00;60274.75;6263394;28;20261;-67
2023/01/01 03:25:42;;;;;;;19.50;12.20;;;;;;;-144.22;100.00;60274.75;6260337;28;20235;-67
2023/01/01 03:28:57;;;;;;;18.57;11.13;;;;;;;-144.22;100.00;60274.75;6245087;28;20223;-67
2023/01/01 03:32:04;;;;;;;19.80;11.93;;;;;;;-144.22;100.00;60274.75;6251791;28;20702;-67
2023/01/01 03:35:06;;;;;;;20.00;9.97;;;;;;;-144.22;100.00;60274.75;6245252;28;20223;-66
2023/01/01 03:38:17;;;;;;;13.13;9.47;;;;;;;-144.22;100.00;60274.75;6251342;28;20234;-67
2023/01/01 03:41:35;;;;;;;18.63;10.70;;;;;;;-144.22;100.00;60274.75;6267264;28;20234;-68
2023/01/01 03:45:04;;;;;;;14.37;8.83;;;;;;;-144.22;100.00;60274.75;6263965;28;20223;-67
2023/01/01 03:48:06;;;;;;;17.47;10.20;;;;;;;-144.22;100.00;60274.75;6268962;28;20227;-67
2023/01/01 03:51:22;;;;;;;16.50;9.23;;;;;;;-144.22;100.00;60274.75;6268168;28;20264;-68
2023/01/01 03:54:44;;;;;;;15.47;8.93;;;;;;;-144.22;100.00;60274.75;6268076;28;20227;-67
2023/01/01 03:58:12;;;;;;;16.07;9.37;;;;;;;-144.22;100.00;60274.75;6267704;28;20228;-68
2023/01/01 04:01:21;;;;;;;19.13;11.13;;;;;;;-144.22;100.00;60274.75;6282689;28;20235;-66
2023/01/01 04:04:25;;;;;;;19.23;12.17;;;;;;;-144.22;100.00;60274.75;6267010;28;20234;-67
2023/01/01 04:07:30;;;;;;;18.60;11.57;;;;;;;-144.22;100.00;60274.75;6265168;28;20234;-67
2023/01/01 04:10:36;;;;;;;16.50;11.10;;;;;;;-144.22;100.00;60274.75;6264025;28;20235;-67
2023/01/01 04:13:47;;;;;;;14.43;10.07;;;;;;;-144.22;100.00;60274.75;6263175;28;20702;-67
2023/01/01 04:16:49;;;;;;;19.30;11.53;;;;;;;-144.22;100.00;60274.75;6266088;28;20498;-67
2023/01/01 04:19:51;;;;;;;18.50;10.27;;;;;;;-144.22;100.00;60274.75;6264747;28;20228;-67
2023/01/01 04:22:57;;;;;;;17.63;9.57;;;;;;;-144.22;100.00;60274.75;6265904;28;20888;-67
2023/01/01 04:25:59;;;;;;;12.23;8.10;;;;;;;-144.22;100.00;60274.75;6266946;28;20321;-67
2023/01/01 04:29:01;;;;;;;13.37;8.27;;;;;;;-144.22;100.00;60274.75;6287542;28;20772;-67
2023/01/01 04:32:04;;;;;;;14.07;8.53;;;;;;;-144.22;100.00;60274.75;6274755;28;20819;-66
2023/01/01 04:35:07;;;;;;;11.70;8.07;;;;;;;-144.22;100.00;60274.75;6290870;28;20364;-67
2023/01/01 04:38:13;;;;;;;12.67;7.60;;;;;;;-144.22;100.00;60274.75;6287139;28;20243;-69
2023/01/01 04:41:15;;;;;;;10.30;7.40;;;;;;;-144.22;100.00;60274.75;6290255;28;20234;-66
2023/01/01 04:44:17;;;;;;;14.40;7.70;;;;;;;-144.22;100.00;60274.75;6288076;28;20595;-67
2023/01/01 04:47:20;;;;;;;13.87;7.63;;;;;;;-144.22;100.00;60274.75;6287878;28;20240;-67
2023/01/01 04:50:23;;;;;;;13.80;8.50;;;;;;;-144.22;100.00;60274.75;6275809;28;20238;-67
2023/01/01 04:53:27;;;;;;;18.33;10.67;;;;;;;-144.22;100.00;60274.75;6287080;28;20238;-66
2023/01/01 04:56:29;;;;;;;17.90;9.30;;;;;;;-144.22;100.00;60274.75;6289380;28;20227;-67
2023/01/01 04:59:31;;;;;;;14.63;9.13;;;;;;;-144.22;100.00;60274.75;6288865;28;20383;-67
2023/01/01 05:02:33;;;;;;;16.27;9.17;;;;;;;-144.22;100.00;60274.75;6271729;28;20384;-67
2023/01/01 05:05:36;;;;;;;17.50;10.87;;;;;;;-144.22;100.00;60274.75;6276037;28;20247;-67
2023/01/01 05:08:40;;;;;;;23.43;12.93;;;;;;;-144.22;100.00;60274.75;6290925;28;20248;-67
2023/01/01 05:11:42;;;;;;;17.50;9.93;;;;;;;-144.22;100.00;60274.75;6292645;28;20236;-67
2023/01/01 05:14:44;;;;;;;19.20;11.67;;;;;;;-144.22;100.00;60274.75;6274468;28;20242;-67
2023/01/01 05:17:46;;;;;;;23.00;11.57;;;;;;;-144.22;100.00;60274.75;6292321;28;20285;-67
2023/01/01 05:20:49;;;;;;;19.93;11.57;;;;;;;-144.22;100.00;60274.75;6293302;28;20227;-67
2023/01/01 05:23:55;;;;;;;21.40;11.77;;;;;;;-144.22;100.00;60274.75;6290271;28;20573;-67
2023/01/01 05:26:57;;;;;;;22.27;12.30;;;;;;;-144.22;100.00;60274.75;6289416;28;20238;-67
2023/01/01 05:29:59;;;;;;;24.53;12.80;;;;;;;-144.22;100.00;60274.75;6291157;28;20815;-67
2023/01/01 05:33:01;;;;;;;25.57;14.30;;;;;;;-144.22;100.00;60274.75;6293309;28;20226;-68
2023/01/01 05:36:05;;;;;;;24.63;13.73;;;;;;;-144.22;100.00;60274.75;6255620;28;20368;-67
2023/01/01 05:39:09;;;;;;;24.40;13.00;;;;;;;-144.22;100.00;60274.75;6277171;28;20664;-67
2023/01/01 05:42:11;;;;;;;23.87;12.83;;;;;;;-144.22;100.00;60274.75;6295744;28;20311;-67
2023/01/01 05:45:13;;;;;;;25.50;13.57;;;;;;;-144.22;100.00;60274.75;6277810;28;20222;-67
2023/01/01 05:48:15;;;;;;;29.63;15.23;;;;;;;-144.22;100.00;60274.75;6287911;28;20206;-67
2023/01/01 05:51:22;;;;;;;23.67;13.67;;;;;;;-144.22;100.00;60274.75;6289747;28;20210;-67
2023/01/01 05:54:24;;;;;;;21.73;12.87;;;;;;;-144.22;100.00;60274.75;6294654;28;20253;-67
2023/01/01 05:57:29;;;;;;;27.20;15.70;;;;;;;-144.22;100.00;60274.75;6293962;28;20284;-67
2023/01/01 06:00:31;;;;;;;20.73;13.27;;;;;;;-144.22;100.00;60274.75;6294386;28;20736;-67
2023/01/01 06:03:33;;;;;;;27.13;15.97;;;;;;;-144.22;100.00;60274.75;6276432;28;20218;-67
2023/01/01 06:06:35;;;;;;;33.97;19.00;;;;;;;-144.22;100.00;60274.75;6278965;28;20226;-68
2023/01/01 06:09:37;;;;;;;29.60;16.13;;;;;;;-144.22;100.00;60274.75;6295608;28;20657;-67
2023/01/01 06:12:39;;;;;;;33.40;17.20;;;;;;;-144.22;100.00;60274.75;6276487;28;20742;-71
2023/01/01 06:15:41;;;;;;;32.47;17.80;;;;;;;-144.22;100.00;60274.75;6298221;28;20298;-67
2023/01/01 06:18:44;;;;;;;31.27;16.50;;;;;;;-144.22;100.00;60274.75;6294466;28;20260;-68
2023/01/01 06:21:46;;;;;;;28.87;16.57;;;;;;;-144.22;100.00;60274.75;6293747;28;20632;-68
2023/01/01 06:24:48;;;;;;;32.30;17.37;;;;;;;-144.22;100.00;60274.75;6275596;28;20761;-67
2023/01/01 06:27:50;;;;;;;29.03;16.73;;;;;;;-144.22;100.00;60274.75;6294115;28;20233;-67
2023/01/01 06:30:52;;;;;;;34.13;18.87;;;;;;;-144.22;100.00;60274.75;6275511;28;20233;-67
2023/01/01 06:33:55;;;;;;;32.40;18.90;;;;;;;-144.22;100.00;60274.75;6302164;28;20230;-69
2023/01/01 06:36:57;;;;;;;39.07;21.83;;;;;;;-144.22;100.00;60274.75;6268390;28;20313;-67
2023/01/01 06:40:08;;;;;;;36.07;20.17;;;;;;;-144.22;100.00;60274.75;6274645;28;20226;-67
2023/01/01 06:43:10;;;;;;;31.00;19.63;;;;;;;-144.22;100.00;60274.75;6292029;28;20248;-68
2023/01/01 06:46:16;;;;;;;38.53;20.73;;;;;;;-144.22;100.00;60274.75;6259034;28;20263;-67
2023/01/01 06:49:18;;;;;;;36.23;19.30;;;;;;;-144.22;100.00;60274.75;6291952;28;20261;-67
2023/01/01 06:52:20;;;;;;;34.40;19.67;;;;;;;-144.22;100.00;60274.75;6274709;28;20316;-67
2023/01/01 06:55:22;;;;;;;31.07;17.93;;;;;;;-144.22;100.00;60274.75;6292466;28;20240;-67
2023/01/01 06:58:24;;;;;;;44.80;20.67;;;;;;;-144.22;100.00;60274.75;6290061;28;20319;-68
2023/01/01 07:01:29;;;;;;;39.57;21.63;;;;;;;-144.22;100.00;60274.75;6292508;28;20235;-67
2023/01/01 07:04:31;;;;;;;34.00;20.03;;;;;;;-144.22;100.00;60274.75;6292353;28;20234;-67
2023/01/01 07:07:33;;;;;;;40.33;21.70;;;;;;;-144.22;100.00;60274.75;6293448;28;20761;-67
2023/01/01 07:10:36;;;;;;;38.63;21.37;;;;;;;-144.22;100.00;60274.75;6270849;28;20707;-67
2023/01/01 07:13:39;;;;;;;34.87;20.17;;;;;;;-144.22;100.00;60274.75;6292093;28;20222;-67
2023/01/01 07:16:41;;;;;;;32.90;20.60;;;;;;;-144.22;100.00;60274.75;6292043;28;20232;-67
2023/01/01 07:19:43;;;;;;;35.90;20.37;;;;;;;-144.22;100.00;60274.75;6291598;28;20233;-67
2023/01/01 07:22:45;;;;;;;44.50;23.27;;;;;;;-144.22;100.00;60274.75;6291971;28;20234;-67
2023/01/01 07:25:49;;;;;;;51.47;25.60;;;;;;;-144.22;100.00;60274.75;6291093;28;20283;-68
2023/01/01 07:28:51;;;;;;;41.73;23.23;;;;;;;-144.22;100.00;60274.75;6269570;28;20717;-67
2023/01/01 07:31:53;;;;;;;41.90;21.97;;;;;;;-144.22;100.00;60274.75;6291520;28;20237;-67
2023/01/01 07:34:56;;;;;;;51.60;25.37;;;;;;;-144.22;100.00;60274.75;6275551;28;20614;-68
2023/01/01 07:37:58;;;;;;;49.13;25.63;;;;;;;-144.22;100.00;60274.75;6290743;28;20239;-68
2023/01/01 07:41:01;;;;;;;43.47;24.27;;;;;;;-144.22;100.00;60274.75;6290961;28;20241;-67
2023/01/01 07:44:03;;;;;;;42.77;23.97;;;;;;;-144.22;100.00;60274.75;6291642;28;20275;-67
2023/01/01 07:47:22;;;;;;;42.07;23.73;;;;;;;-144.22;100.00;60274.75;6291223;28;20597;-67
2023/01/01 07:50:27;;;;;;;46.17;24.53;;;;;;;-144.22;100.00;60274.75;6294064;28;20278;-67
2023/01/01 07:53:29;;;;;;;47.63;24.30;;;;;;;-144.22;100.00;60274.75;6288193;28;20223;-69
2023/01/01 07:56:33;;;;;;;45.70;23.47;;;;;;;-144.22;100.00;60274.75;6273478;28;20222;-67
2023/01/01 07:59:35;;;;;;;48.80;26.17;;;;;;;-144.22;100.00;60274.75;6291324;28;20316;-68
2023/01/01 08:02:38;;;;;;;41.57;23.90;;;;;;;-144.22;100.00;60274.75;6275055;28;20372;-67
2023/01/01 08:05:41;;;;;;;53.10;27.43;;;;;;;-144.22;100.00;60274.75;6292081;28;20236;-67
2023/01/01 08:08:43;;;;;;;52.03;26.90;;;;;;;-144.22;100.00;60274.75;6276482;28;20226;-67
2023/01/01 08:11:45;;;;;;;49.53;25.00;;;;;;;-144.22;100.00;60274.75;6278985;28;20319;-67
2023/01/01 08:14:47;;;;;;;44.50;24.10;;;;;;;-144.22;100.00;60274.75;6295899;28;20341;-67
2023/01/01 08:17:49;;;;;;;43.87;24.23;;;;;;;-144.22;100.00;60274.75;6277093;28;20225;-68
2023/01/01 08:20:51;;;;;;;42.33;22.17;;;;;;;-144.22;100.00;60274.75;6273044;28;20709;-67
2023/01/01 08:23:53;;;;;;;49.27;25.30;;;;;;;-144.22;100.00;60274.75;6288654;28;20230;-67
2023/01/01 08:26:55;;;;;;;44.77;24.87;;;;;;;-144.22;100.00;60274.75;6287609;28;20313;-67
2023/01/01 08:29:57;;;;;;;46.50;25.30;;;;;;;-144.22;100.00;60274.75;6290266;28;20733;-67
2023/01/01 08:32:59;;;;;;;46.90;25.03;;;;;;;-144.22;100.00;60274.75;6291400;28;20768;-67
2023/01/01 08:36:02;;;;;;;41.37;22.70;;;;;;;-144.22;100.00;60274.75;6288451;28;20228;-67
2023/01/01 08:39:04;;;;;;;41.30;22.93;;;;;;;-144.22;100.00;60274.75;6291229;28;20731;-67
2023/01/01 08:42:06;;;;;;;46.87;25.30;;;;;;;-144.22;100.00;60274.75;6274214;28;20235;-67
2023/01/01 08:45:13;;;;;;;34.70;21.03;;;;;;;-144.22;100.00;60274.75;6291345;28;20215;-67
2023/01/01 08:48:15;;;;;;;45.33;23.77;;;;;;;-144.22;100.00;60274.75;6281116;28;20235;-67
2023/01/01 08:51:17;;;;;;;45.90;25.93;;;;;;;-144.22;100.00;60274.75;6290603;28;20253;-68
2023/01/01 08:54:20;;;;;;;56.30;28.17;;;;;;;-144.22;100.00;60274.75;6290752;28;20314;-66
2023/01/01 08:57:22;;;;;;;52.87;27.00;;;;;;;-144.22;100.00;60274.75;6290351;28;20306;-67
2023/01/01 09:00:25;;;;;;;52.03;27.73;;;;;;;-144.22;100.00;60274.75;6294263;28;20233;-67
2023/01/01 09:03:27;;;;;;;47.07;26.77;;;;;;;-144.22;100.00;60274.75;6278977;28;20226;-67
2023/01/01 09:06:29;;;;;;;46.13;25.33;;;;;;;-144.22;100.00;60274.75;6286096;28;20760;-67
2023/01/01 09:09:31;;;;;;;52.67;27.57;;;;;;;-144.22;100.00;60274.75;6272779;28;20591;-67
2023/01/01 09:12:34;;;;;;;51.33;27.07;;;;;;;2.84;100.00;98236.94;6291255;28;20224;-67
2023/01/01 09:15:37;;;;;;;51.27;26.97;;;;;;;3.21;100.00;98054.72;6296843;28;20253;-66
2023/01/01 09:18:39;;;;;;;45.93;26.07;;;;;;;3.21;100.00;78170.63;6291974;28;20233;-71
2023/01/01 09:21:41;;;;;;;52.03;27.80;;;;;;;-144.22;100.00;60274.75;6294508;28;20248;-67
2023/01/01 09:24:44;;;;;;;48.27;25.77;;;;;;;-144.22;100.00;60274.75;6277523;28;20247;-66
2023/01/01 09:27:46;;;;;;;41.70;23.57;;;;;;;177.61;100.00;60274.75;6290149;28;20242;-66
2023/01/01 09:30:48;;;;;;;47.20;26.60;;;;;;;-144.22;100.00;60274.75;6293134;28;20283;-68
2023/01/01 09:33:50;;;;;;;41.17;23.73;;;;;;;3.92;100.00;78392.81;6297167;28;20234;-66
2023/01/01 09:36:52;;;;;;;42.63;23.97;;;;;;;11.36;100.00;60274.75;6273333;28;20226;-66
2023/01/01 09:39:54;;;;;;;39.93;23.83;;;;;;;21.74;100.00;60274.75;6276100;28;20230;-66
2023/01/01 09:43:04;;;;;;;52.50;27.17;;;;;;;-144.22;100.00;60274.75;6296896;28;20237;-66
2023/01/01 09:46:09;;;;;;;51.20;30.33;;;;;;;4.06;100.00;60274.75;6295099;28;20303;-67
2023/01/01 09:49:27;;;;;;;63.17;34.30;;;;;;;188.01;100.00;60274.75;6296710;28;20241;-66
2023/01/01 09:52:38;;;;;;;72.40;35.47;;;;;;;5.14;100.00;60274.75;6293528;28;20222;-66
2023/01/01 09:55:51;;;;;;;84.60;40.90;;;;;;;-144.22;100.00;60274.75;6298866;28;20372;-66
2023/01/01 09:58:57;;;;;;;66.03;36.87;;;;;;;5.71;100.00;60274.75;6275620;28;20281;-67
2023/01/01 10:02:16;;;;;;;71.83;38.97;;;;;;;6.08;100.00;60274.75;6277756;28;20592;-67
2023/01/01 10:05:34;;;;;;;77.00;40.27;;;;;;;6.50;100.00;60274.75;6276262;28;20889;-66
2023/01/01 10:08:54;;;;;;;65.00;38.63;;;;;;;6.94;100.00;60274.75;6280056;28;20222;-67
2023/01/01 10:12:06;;;;;;;65.13;38.43;;;;;;;-144.22;100.00;60274.75;6274710;28;20659;-67
2023/01/01 10:15:14;;;;;;;53.87;34.70;;;;;;;-144.22;100.00;60274.75;6281779;28;20706;-67
2023/01/01 10:18:22;;;;;;;53.30;33.50;;;;;;;-144.22;100.00;60274.75;6282682;28;20304;-67
2023/01/01 10:21:32;;;;;;;46.57;31.97;;;;;;;177.61;100.00;60274.75;6276353;28;20591;-68
2023/01/01 10:24:44;;;;;;;41.53;28.13;;;;;;;8.29;100.00;78852.56;6292874;28;20234;-66
2023/01/01 10:28:03;;;;;;;37.27;28.13;;;;;;;-144.22;100.00;60274.75;6280315;28;20243;-67
2023/01/01 10:31:40;;;;;;;36.00;25.67;;;;;;;-144.22;100.00;60274.75;6292810;28;20225;-67
2023/01/01 10:34:43;;;;;;;30.53;23.80;;;;;;;-144.22;100.00;60274.75;6274823;28;20218;-67
2023/01/01 10:37:45;;;;;;;31.20;22.13;;;;;;;-144.22;100.00;60274.75;6292795;28;20813;-66
2023/01/01 10:40:49;;;;;;;29.10;20.90;;;;;;;-144.22;100.00;60274.75;6258900;28;20697;-66
2023/01/01 10:43:51;;;;;;;27.00;20.00;;;;;;;-144.22;100.00;60274.75;6290537;28;20376;-67
2023/01/01 10:46:57;;;;;;;25.40;19.10;;;;;;;-144.22;100.00;60274.75;6293409;28;20248;-66
2023/01/01 10:50:08;;;;;;;28.63;20.20;;;;;;;10.06;100.00;60274.75;6277616;28;20299;-66
2023/01/01 10:53:30;;;;;;;23.17;17.80;;;;;;;-144.22;100.00;60274.75;6275943;28;20380;-68
2023/01/01 10:56:40;;;;;;;25.70;18.17;;;;;;;-144.22;100.00;60274.75;6288284;28;20267;-67
2023/01/01 10:59:44;;;;;;;22.77;16.53;;;;;;;188.01;100.00;60274.75;6274835;28;20234;-66
2023/01/01 11:03:14;;;;;;;25.50;17.67;;;;;;;-144.22;100.00;60274.75;6276315;28;20303;-67
2023/01/01 11:06:29;;;;;;;25.80;17.50;;;;;;;188.01;100.00;60274.75;6273568;28;20235;-67
2023/01/01 11:09:35;;;;;;;21.40;15.40;;;;;;;-144.22;100.00;60274.75;6275275;28;20227;-66
2023/01/01 11:12:39;;;;;;;22.60;16.33;;;;;;;-144.22;100.00;60274.75;6278779;28;20221;-66
2023/01/01 11:16:08;;;;;;;20.20;15.73;;;;;;;-144.22;100.00;60274.75;6294143;28;20232;-66
2023/01/01 11:19:29;;;;;;;23.73;16.20;;;;;;;-144.22;100.00;60274.75;6273596;28;20235;-66
2023/01/01 11:22:45;;;;;;;20.50;15.67;;;;;;;-144.22;100.00;60274.75;6297326;28;20239;-66
2023/01/01 11:26:01;;;;;;;23.97;14.67;;;;;;;10.06;100.00;60274.75;6272422;28;20304;-66
2023/01/01 11:29:21;;;;;;;20.70;14.83;;;;;;;-144.22;100.00;60274.75;6264072;28;20233;-66
2023/01/01 11:32:33;;;;;;;17.50;13.57;;;;;;;-144.22;100.00;60274.75;6270681;28;20234;-66
2023/01/01 11:35:49;;;;;;;17.67;12.40;;;;;;;-144.22;100.00;60274.75;6264946;28;20744;-66
2023/01/01 11:39:25;;;;;;;13.70;11.07;;;;;;;188.01;100.00;60274.75;6266456;28;20232;-66
2023/01/01 11:42:31;;;;;;;15.67;11.27;;;;;;;-144.22;100.00;60274.75;6265028;28;20259;-66
2023/01/01 11:45:39;;;;;;;15.10;11.40;;;;;;;-144.22;100.00;60274.75;6270718;28;20283;-66
2023/01/01 11:48:43;;;;;;;17.70;11.40;;;;;;;10.06;100.00;60274.75;6269410;28;20602;-67
2023/01/01 11:51:46;;;;;;;14.87;10.30;;;;;;;-144.22;100.00;60274.75;6266838;28;20225;-67
2023/01/01 11:54:49;;;;;;;12.87;9.97;;;;;;;-144.22;100.00;60274.75;6271468;28;20314;-67
2023/01/01 11:58:01;;;;;;;15.33;10.53;;;;;;;-144.22;100.00;60274.75;6265987;28;20236;-67
2023/01/01 12:01:12;;;;;;;12.27;8.87;;;;;;;11.36;100.00;60274.75;6267116;28;20233;-67
2023/01/01 12:04:14;;;;;;;12.93;8.50;;;;;;;-144.22;100.00;60274.75;6266087;28;20239;-68
2023/01/01 12:07:39;;;;;;;11.57;8.60;;;;;;;-144.22;100.00;60274.75;6260886;28;20242;-67
2023/01/01 12:10:53;;;;;;;10.50;8.50;;;;;;;-144.22;100.00;60274.75;6265956;28;20616;-67
2023/01/01 12:14:16;;;;;;;11.57;8.97;;;;;;;-144.22;100.00;60274.75;6270771;28;20373;-67
2023/01/01 12:17:33;;;;;;;11.10;8.30;;;;;;;-144.22;100.00;60274.75;6265634;28;20337;-67
2023/01/01 12:20:53;;;;;;;9.67;7.53;;;;;;;-144.22;100.00;60274.75;6254918;28;20268;-67
2023/01/01 12:23:55;;;;;;;7.37;6.57;;;;;;;-144.22;100.00;60274.75;6266075;28;20239;-67
2023/01/01 12:27:12;;;;;;;12.03;7.60;;;;;;;-144.22;100.00;60274.75;6278577;28;20225;-67
2023/01/01 12:30:28;;;;;;;10.80;7.93;;;;;;;11.09;100.00;60274.75;6293195;28;20301;-67
2023/01/01 12:33:58;;;;;;;11.40;7.87;;;;;;;11.18;100.00;60274.75;6275863;28;20317;-67
2023/01/01 12:37:24;;;;;;;10.20;7.50;;;;;;;-144.22;100.00;60274.75;6271783;28;20267;-68
2023/01/01 12:40:46;;;;;;;8.63;6.50;;;;;;;-144.22;100.00;60274.75;6291890;28;20244;-67
2023/01/01 12:44:38;;;;;;;9.30;5.73;;;;;;;-144.22;100.00;60274.75;6272397;28;20345;-67
2023/01/01 12:47:48;;;;;;;7.77;5.30;;;;;;;12.35;100.00;60274.75;6274270;28;20236;-68
2023/01/01 12:50:56;;;;;;;6.83;5.40;;;;;;;-144.22;100.00;60274.75;6299245;28;20233;-67
2023/01/01 12:54:30;;;;;;;8.53;5.87;;;;;;;-144.22;100.00;60274.75;6295628;28;20662;-67
2023/01/01 12:57:40;;;;;;;7.80;5.07;;;;;;;-144.22;100.00;60274.75;6296287;28;20379;-67
2023/01/01 13:00:50;;;;;;;6.63;5.07;;;;;;;-144.22;100.00;60274.75;6292725;28;20600;-68
2023/01/01 13:04:06;;;;;;;6.13;4.90;;;;;;;-144.22;100.00;60274.75;6295924;28;20334;-67
2023/01/01 13:07:12;;;;;;;6.93;4.50;;;;;;;-144.22;100.00;60274.75;6289347;28;20225;-68
2023/01/01 13:10:24;;;;;;;7.23;5.00;;;;;;;188.01;100.00;60274.75;6294884;28;20674;-67
2023/01/01 13:13:26;;;;;;;6.33;5.13;;;;;;;-144.22;100.00;60274.75;6292841;28;20584;-67
2023/01/01 13:16:37;;;;;;;4.80;4.30;;;;;;;-144.22;100.00;60274.75;6283732;28;20378;-67
2023/01/01 13:19:40;;;;;;;5.33;4.53;;;;;;;-144.22;100.00;60274.75;6278495;28;20694;-70
2023/01/01 13:22:43;;;;;;;6.63;4.83;;;;;;;-144.22;100.00;60274.75;6277252;28;20232;-67
2023/01/01 13:25:45;;;;;;;4.70;4.00;;;;;;;-144.22;100.00;60274.75;6292384;28;20600;-67
2023/01/01 13:28:50;;;;;;;6.70;4.37;;;;;;;-144.22;100.00;60274.75;6295411;28;20239;-67
2023/01/01 13:32:01;;;;;;;6.30;4.73;;;;;;;-144.22;100.00;60274.75;6295036;28;20781;-67
2023/01/01 13:35:15;;;;;;;6.90;4.60;;;;;;;-144.22;100.00;60274.75;6292046;28;20241;-67
2023/01/01 13:38:48;;;;;;;5.50;4.17;;;;;;;-144.22;100.00;60274.75;6293151;28;20289;-67
2023/01/01 13:41:50;;;;;;;5.43;4.37;;;;;;;-144.22;100.00;60274.75;6266952;28;20217;-67
2023/01/01 13:44:52;;;;;;;5.83;4.20;;;;;;;10.22;100.00;60274.75;6294849;28;20229;-68
2023/01/01 13:48:09;;;;;;;4.57;3.90;;;;;;;-144.22;100.00;60274.75;6291887;28;20714;-67
2023/01/01 13:51:25;;;;;;;5.60;4.17;;;;;;;-144.22;100.00;60274.75;6275263;28;21839;-67
2023/01/01 13:55:00;;;;;;;5.73;4.30;;;;;;;-144.22;100.00;60274.75;6292429;28;20245;-67
2023/01/01 13:58:05;;;;;;;5.87;4.13;;;;;;;-144.22;100.00;60274.75;6290495;28;20309;-67
2023/01/01 14:01:35;;;;;;;6.33;4.53;;;;;;;-144.22;100.00;60274.75;6275675;28;20385;-67
2023/01/01 14:04:47;;;;;;;7.63;4.60;;;;;;;-144.22;100.00;60274.75;6281249;28;20234;-67
2023/01/01 14:07:52;;;;;;;6.87;5.10;;;;;;;-144.22;100.00;60274.75;6293302;28;20310;-68